sensor_id;sensor_type;location;lat;lon;timestamp;P1;durP1;ratioP1;P2;durP2;ratioP2
17710;SDS011;8975;57.718;12.134;2023-02-01T00:01:41;271.50;;;0.00;;
17710;SDS011;8975;57.718;12.134;2023-02-01T00:04:07;268.23;;;0.00;;
17710;SDS011;8975;57.718;12.134;2023-02-01T00:06:32;267.70;;;0.00;;
17710;SDS011;8975;57.718;12.134;2023-02-01T00:08:58;265.90;;;0.00;;
17710;SDS011;8975;57.718;12.134;2023-02-01T00:11:23;268.60;;;0.00;;
17710;SDS011;8975;57.718;12.134;2023-02-01T00:13:49;265.40;;;0.00;;
17710;SDS011;8975;57.718;12.134;2023-02-01T00:16:16;267.67;;;0.00;;
17710;SDS011;8975;57.718;12.134;2023-02-01T00:18:42;270.40;;;0.00;;
17710;SDS011;8975;57.718;12.134;2023-02-01T00:21:12;268.27;;;0.00;;
17710;SDS011;8975;57.718;12.134;2023-02-01T00:23:38;268.10;;;0.00;;
17710;SDS011;8975;57.718;12.134;2023-02-01T00:26:04;271.00;;;0.00;;
17710;SDS011;8975;57.718;12.134;2023-02-01T00:28:31;268.98;;;0.00;;
17710;SDS011;8975;57.718;12.134;2023-02-01T00:31:00;272.88;;;0.00;;
17710;SDS011;8975;57.718;12.134;2023-02-01T00:33:27;267.83;;;0.00;;
17710;SDS011;8975;57.718;12.134;2023-02-01T00:35:57;272.07;;;0.00;;
17710;SDS011;8975;57.718;12.134;2023-02-01T00:38:26;268.95;;;0.00;;
17710;SDS011;8975;57.718;12.134;2023-02-01T00:40:53;268.42;;;0.00;;
17710;SDS011;8975;57.718;12.134;2023-02-01T00:43:18;270.15;;;0.00;;
17710;SDS011;8975;57.718;12.134;2023-02-01T00:45:47;272.70;;;0.00;;
17710;SDS011;8975;57.718;12.134;2023-02-01T00:48:12;267.92;;;0.00;;
17710;SDS011;8975;57.718;12.134;2023-02-01T00:50:44;269.77;;;0.00;;
17710;SDS011;8975;57.718;12.134;2023-02-01T00:53:10;269.52;;;0.00;;
17710;SDS011;8975;57.718;12.134;2023-02-01T00:55:36;268.58;;;0.00;;
17710;SDS011;8975;57.718;12.134;2023-02-01T00:58:01;268.95;;;0.00;;
17710;SDS011;8975;57.718;12.134;2023-02-01T01:00:27;271.63;;;0.00;;
17710;SDS011;8975;57.718;12.134;2023-02-01T01:02:52;267.63;;;0.00;;
17710;SDS011;8975;57.718;12.134;2023-02-01T01:05:18;269.92;;;0.00;;
17710;SDS011;8975;57.718;12.134;2023-02-01T01:07:43;266.93;;;0.00;;
17710;SDS011;8975;57.718;12.134;2023-02-01T01:10:11;268.35;;;0.00;;
17710;SDS011;8975;57.718;12.134;2023-02-01T01:12:36;267.48;;;0.00;;
17710;SDS011;8975;57.718;12.134;2023-02-01T01:15:01;271.27;;;0.00;;
17710;SDS011;8975;57.718;12.134;2023-02-01T01:17:27;267.35;;;0.00;;
17710;SDS011;8975;57.718;12.134;2023-02-01T01:19:53;267.02;;;0.00;;
17710;SDS011;8975;57.718;12.134;2023-02-01T01:22:18;267.10;;;0.00;;
17710;SDS011;8975;57.718;12.134;2023-02-01T01:24:43;266.37;;;0.00;;
17710;SDS011;8975;57.718;12.134;2023-02-01T01:27:09;266.90;;;0.00;;
17710;SDS011;8975;57.718;12.134;2023-02-01T01:29:34;270.37;;;0.00;;
17710;SDS011;8975;57.718;12.134;2023-02-01T01:32:00;267.60;;;0.00;;
17710;SDS011;8975;57.718;12.134;2023-02-01T01:34:25;269.10;;;0.00;;
17710;SDS011;8975;57.718;12.134;2023-02-01T01:36:50;271.93;;;0.00;;
17710;SDS011;8975;57.718;12.134;2023-02-01T01:39:16;267.08;;;0.00;;
17710;SDS011;8975;57.718;12.134;2023-02-01T01:41:41;268.95;;;0.00;;
17710;SDS011;8975;57.718;12.134;2023-02-01T01:44:53;269.53;;;0.00;;
17710;SDS011;8975;57.718;12.134;2023-02-01T01:47:10;268.67;;;0.00;;
17710;SDS011;8975;57.718;12.134;2023-02-01T01:49:36;270.05;;;0.00;;
17710;SDS011;8975;57.718;12.134;2023-02-01T01:52:03;268.27;;;0.00;;
17710;SDS011;8975;57.718;12.134;2023-02-01T01:54:30;271.27;;;0.00;;
17710;SDS011;8975;57.718;12.134;2023-02-01T01:57:05;274.50;;;0.00;;
17710;SDS011;8975;57.718;12.134;2023-02-01T01:59:34;271.83;;;0.00;;
17710;SDS011;8975;57.718;12.134;2023-02-01T02:02:04;269.40;;;0.00;;
17710;SDS011;8975;57.718;12.134;2023-02-01T02:04:29;270.48;;;0.00;;
17710;SDS011;8975;57.718;12.134;2023-02-01T02:07:08;273.45;;;0.00;;
17710;SDS011;8975;57.718;12.134;2023-02-01T02:09:37;270.85;;;0.00;;
17710;SDS011;8975;57.718;12.134;2023-02-01T02:12:03;269.52;;;0.00;;
17710;SDS011;8975;57.718;12.134;2023-02-01T02:14:28;267.42;;;0.00;;
17710;SDS011;8975;57.718;12.134;2023-02-01T02:39:21;272.05;;;0.00;;
17710;SDS011;8975;57.718;12.134;2023-02-01T02:42:18;272.17;;;0.00;;
17710;SDS011;8975;57.718;12.134;2023-02-01T02:48:17;272.13;;;0.00;;
17710;SDS011;8975;57.718;12.134;2023-02-01T02:53:35;272.63;;;0.00;;
17710;SDS011;8975;57.718;12.134;2023-02-01T02:56:28;273.08;;;0.00;;
17710;SDS011;8975;57.718;12.134;2023-02-01T02:59:14;272.48;;;0.00;;
17710;SDS011;8975;57.718;12.134;2023-02-01T03:02:03;273.20;;;0.00;;
17710;SDS011;8975;57.718;12.134;2023-02-01T03:04:51;271.42;;;0.00;;
17710;SDS011;8975;57.718;12.134;2023-02-01T03:10:32;271.00;;;0.00;;
17710;SDS011;8975;57.718;12.134;2023-02-01T03:13:06;274.17;;;0.00;;
17710;SDS011;8975;57.718;12.134;2023-02-01T03:18:14;274.02;;;0.00;;
17710;SDS011;8975;57.718;12.134;2023-02-01T03:20:46;272.90;;;0.00;;
17710;SDS011;8975;57.718;12.134;2023-02-01T03:23:17;272.92;;;0.00;;
17710;SDS011;8975;57.718;12.134;2023-02-01T03:25:47;273.02;;;0.00;;
17710;SDS011;8975;57.718;12.134;2023-02-01T03:28:15;271.50;;;0.00;;
17710;SDS011;8975;57.718;12.134;2023-02-01T03:30:46;274.40;;;0.00;;
17710;SDS011;8975;57.718;12.134;2023-02-01T03:33:17;272.55;;;0.00;;
17710;SDS011;8975;57.718;12.134;2023-02-01T03:35:56;274.03;;;0.00;;
17710;SDS011;8975;57.718;12.134;2023-02-01T03:41:42;274.48;;;0.00;;
17710;SDS011;8975;57.718;12.134;2023-02-01T03:44:26;273.33;;;0.00;;
17710;SDS011;8975;57.718;12.134;2023-02-01T03:46:59;274.05;;;0.00;;
17710;SDS011;8975;57.718;12.134;2023-02-01T03:49:32;277.30;;;0.00;;
17710;SDS011;8975;57.718;12.134;2023-02-01T03:52:05;272.83;;;0.00;;
17710;SDS011;8975;57.718;12.134;2023-02-01T03:54:34;274.27;;;0.00;;
17710;SDS011;8975;57.718;12.134;2023-02-01T03:57:02;274.52;;;0.00;;
17710;SDS011;8975;57.718;12.134;2023-02-01T03:59:32;274.73;;;0.00;;
17710;SDS011;8975;57.718;12.134;2023-02-01T04:01:58;277.00;;;0.00;;
17710;SDS011;8975;57.718;12.134;2023-02-01T04:04:23;275.93;;;0.00;;
17710;SDS011;8975;57.718;12.134;2023-02-01T04:06:49;273.30;;;0.00;;
17710;SDS011;8975;57.718;12.134;2023-02-01T04:09:15;273.75;;;0.00;;
17710;SDS011;8975;57.718;12.134;2023-02-01T04:11:41;274.23;;;0.00;;
17710;SDS011;8975;57.718;12.134;2023-02-01T04:14:07;274.27;;;0.00;;
17710;SDS011;8975;57.718;12.134;2023-02-01T04:16:32;276.60;;;0.00;;
17710;SDS011;8975;57.718;12.134;2023-02-01T04:18:58;274.00;;;0.00;;
17710;SDS011;8975;57.718;12.134;2023-02-01T04:21:27;274.15;;;0.00;;
17710;SDS011;8975;57.718;12.134;2023-02-01T04:23:53;275.02;;;0.00;;
17710;SDS011;8975;57.718;12.134;2023-02-01T04:26:19;274.38;;;0.00;;
17710;SDS011;8975;57.718;12.134;2023-02-01T04:28:45;275.85;;;0.00;;
17710;SDS011;8975;57.718;12.134;2023-02-01T04:31:14;267.70;;;0.00;;
17710;SDS011;8975;57.718;12.134;2023-02-01T04:33:41;277.27;;;0.00;;
17710;SDS011;8975;57.718;12.134;2023-02-01T04:36:07;276.23;;;0.00;;
17710;SDS011;8975;57.718;12.134;2023-02-01T04:38:32;281.70;;;0.00;;
17710;SDS011;8975;57.718;12.134;2023-02-01T04:40:59;277.58;;;0.00;;
17710;SDS011;8975;57.718;12.134;2023-02-01T04:43:24;276.90;;;0.00;;
17710;SDS011;8975;57.718;12.134;2023-02-01T04:45:50;279.52;;;0.00;;
17710;SDS011;8975;57.718;12.134;2023-02-01T04:48:16;279.33;;;0.00;;
17710;SDS011;8975;57.718;12.134;2023-02-01T04:50:43;277.58;;;0.00;;
17710;SDS011;8975;57.718;12.134;2023-02-01T04:53:16;276.58;;;0.00;;
17710;SDS011;8975;57.718;12.134;2023-02-01T04:55:42;276.88;;;0.00;;
17710;SDS011;8975;57.718;12.134;2023-02-01T04:58:08;276.43;;;0.00;;
17710;SDS011;8975;57.718;12.134;2023-02-01T05:00:34;275.25;;;0.00;;
17710;SDS011;8975;57.718;12.134;2023-02-01T05:02:59;272.97;;;0.00;;
17710;SDS011;8975;57.718;12.134;2023-02-01T05:05:25;270.33;;;0.00;;
17710;SDS011;8975;57.718;12.134;2023-02-01T05:07:51;276.70;;;0.00;;
17710;SDS011;8975;57.718;12.134;2023-02-01T05:10:17;272.63;;;0.00;;
17710;SDS011;8975;57.718;12.134;2023-02-01T05:12:43;273.37;;;0.00;;
17710;SDS011;8975;57.718;12.134;2023-02-01T05:15:28;276.50;;;0.00;;
17710;SDS011;8975;57.718;12.134;2023-02-01T05:17:54;276.60;;;0.00;;
17710;SDS011;8975;57.718;12.134;2023-02-01T05:20:19;274.35;;;0.00;;
17710;SDS011;8975;57.718;12.134;2023-02-01T05:22:45;275.90;;;0.00;;
17710;SDS011;8975;57.718;12.134;2023-02-01T05:25:10;275.35;;;0.00;;
17710;SDS011;8975;57.718;12.134;2023-02-01T05:27:35;280.55;;;0.00;;
17710;SDS011;8975;57.718;12.134;2023-02-01T05:30:02;279.17;;;0.00;;
17710;SDS011;8975;57.718;12.134;2023-02-01T05:32:29;278.85;;;0.00;;
17710;SDS011;8975;57.718;12.134;2023-02-01T05:34:54;276.55;;;0.00;;
17710;SDS011;8975;57.718;12.134;2023-02-01T05:37:19;276.73;;;0.00;;
17710;SDS011;8975;57.718;12.134;2023-02-01T05:39:45;277.95;;;0.00;;
17710;SDS011;8975;57.718;12.134;2023-02-01T05:42:10;277.70;;;0.00;;
17710;SDS011;8975;57.718;12.134;2023-02-01T05:44:35;276.60;;;0.00;;
17710;SDS011;8975;57.718;12.134;2023-02-01T05:47:01;276.97;;;0.00;;
17710;SDS011;8975;57.718;12.134;2023-02-01T05:49:26;280.20;;;0.00;;
17710;SDS011;8975;57.718;12.134;2023-02-01T05:51:52;275.60;;;0.00;;
17710;SDS011;8975;57.718;12.134;2023-02-01T05:54:17;276.07;;;0.00;;
17710;SDS011;8975;57.718;12.134;2023-02-01T05:56:42;277.45;;;0.00;;
17710;SDS011;8975;57.718;12.134;2023-02-01T05:59:08;275.00;;;0.00;;
17710;SDS011;8975;57.718;12.134;2023-02-01T06:01:34;276.45;;;0.00;;
17710;SDS011;8975;57.718;12.134;2023-02-01T06:04:00;277.73;;;0.00;;
17710;SDS011;8975;57.718;12.134;2023-02-01T06:06:25;276.80;;;0.00;;
17710;SDS011;8975;57.718;12.134;2023-02-01T06:08:50;277.10;;;0.00;;
17710;SDS011;8975;57.718;12.134;2023-02-01T06:11:16;276.73;;;0.00;;
17710;SDS011;8975;57.718;12.134;2023-02-01T06:13:41;279.50;;;0.00;;
17710;SDS011;8975;57.718;12.134;2023-02-01T06:16:07;278.47;;;0.00;;
17710;SDS011;8975;57.718;12.134;2023-02-01T06:18:33;276.00;;;0.00;;
17710;SDS011;8975;57.718;12.134;2023-02-01T06:20:59;275.45;;;0.00;;
17710;SDS011;8975;57.718;12.134;2023-02-01T06:23:25;274.90;;;0.00;;
17710;SDS011;8975;57.718;12.134;2023-02-01T06:25:52;275.35;;;0.00;;
17710;SDS011;8975;57.718;12.134;2023-02-01T06:28:23;278.67;;;0.00;;
17710;SDS011;8975;57.718;12.134;2023-02-01T06:30:48;275.88;;;0.00;;
17710;SDS011;8975;57.718;12.134;2023-02-01T06:33:14;275.92;;;0.00;;
17710;SDS011;8975;57.718;12.134;2023-02-01T06:35:40;274.65;;;0.00;;
17710;SDS011;8975;57.718;12.134;2023-02-01T06:38:07;278.83;;;0.00;;
17710;SDS011;8975;57.718;12.134;2023-02-01T06:40:33;280.33;;;0.00;;
17710;SDS011;8975;57.718;12.134;2023-02-01T06:42:58;280.43;;;0.00;;
17710;SDS011;8975;57.718;12.134;2023-02-01T06:45:24;281.10;;;0.00;;
17710;SDS011;8975;57.718;12.134;2023-02-01T06:47:49;278.23;;;0.00;;
17710;SDS011;8975;57.718;12.134;2023-02-01T06:50:15;282.20;;;0.00;;
17710;SDS011;8975;57.718;12.134;2023-02-01T06:52:40;277.67;;;0.00;;
17710;SDS011;8975;57.718;12.134;2023-02-01T06:55:06;278.47;;;0.00;;
17710;SDS011;8975;57.718;12.134;2023-02-01T06:57:32;278.70;;;0.00;;
17710;SDS011;8975;57.718;12.134;2023-02-01T06:59:59;280.15;;;0.00;;
17710;SDS011;8975;57.718;12.134;2023-02-01T07:02:24;274.37;;;0.00;;
17710;SDS011;8975;57.718;12.134;2023-02-01T07:04:50;274.73;;;0.00;;
17710;SDS011;8975;57.718;12.134;2023-02-01T07:07:15;275.33;;;0.00;;
17710;SDS011;8975;57.718;12.134;2023-02-01T07:09:44;275.38;;;0.00;;
17710;SDS011;8975;57.718;12.134;2023-02-01T07:12:09;276.37;;;0.00;;
17710;SDS011;8975;57.718;12.134;2023-02-01T07:14:35;276.53;;;0.00;;
17710;SDS011;8975;57.718;12.134;2023-02-01T07:17:00;281.10;;;0.00;;
17710;SDS011;8975;57.718;12.134;2023-02-01T07:19:26;274.77;;;0.00;;
17710;SDS011;8975;57.718;12.134;2023-02-01T07:21:51;275.27;;;0.00;;
17710;SDS011;8975;57.718;12.134;2023-02-01T07:24:16;277.93;;;0.00;;
17710;SDS011;8975;57.718;12.134;2023-02-01T07:26:42;276.10;;;0.00;;
17710;SDS011;8975;57.718;12.134;2023-02-01T07:29:07;277.77;;;0.00;;
17710;SDS011;8975;57.718;12.134;2023-02-01T07:31:33;279.77;;;0.00;;
17710;SDS011;8975;57.718;12.134;2023-02-01T07:33:58;277.33;;;0.00;;
17710;SDS011;8975;57.718;12.134;2023-02-01T07:36:24;277.77;;;0.00;;
17710;SDS011;8975;57.718;12.134;2023-02-01T07:38:49;278.05;;;0.00;;
17710;SDS011;8975;57.718;12.134;2023-02-01T07:41:16;278.63;;;0.00;;
17710;SDS011;8975;57.718;12.134;2023-02-01T07:43:44;279.67;;;0.00;;
17710;SDS011;8975;57.718;12.134;2023-02-01T07:46:09;277.77;;;0.00;;
17710;SDS011;8975;57.718;12.134;2023-02-01T07:48:36;275.83;;;0.00;;
17710;SDS011;8975;57.718;12.134;2023-02-01T07:51:02;275.45;;;0.00;;
17710;SDS011;8975;57.718;12.134;2023-02-01T07:53:34;277.88;;;0.00;;
17710;SDS011;8975;57.718;12.134;2023-02-01T07:56:00;278.05;;;0.00;;
17710;SDS011;8975;57.718;12.134;2023-02-01T07:58:26;279.52;;;0.00;;
17710;SDS011;8975;57.718;12.134;2023-02-01T08:00:52;283.40;;;0.00;;
17710;SDS011;8975;57.718;12.134;2023-02-01T08:03:37;277.00;;;0.00;;
17710;SDS011;8975;57.718;12.134;2023-02-01T08:06:03;277.65;;;0.00;;
17710;SDS011;8975;57.718;12.134;2023-02-01T08:08:30;278.10;;;0.00;;
17710;SDS011;8975;57.718;12.134;2023-02-01T08:11:02;280.92;;;0.00;;
17710;SDS011;8975;57.718;12.134;2023-02-01T08:13:29;277.65;;;0.00;;
17710;SDS011;8975;57.718;12.134;2023-02-01T08:15:58;276.50;;;0.00;;
17710;SDS011;8975;57.718;12.134;2023-02-01T08:18:24;276.40;;;0.00;;
17710;SDS011;8975;57.718;12.134;2023-02-01T08:20:49;279.90;;;0.00;;
17710;SDS011;8975;57.718;12.134;2023-02-01T08:23:16;275.57;;;0.00;;
17710;SDS011;8975;57.718;12.134;2023-02-01T08:25:42;277.08;;;0.00;;
17710;SDS011;8975;57.718;12.134;2023-02-01T08:28:08;279.65;;;0.00;;
17710;SDS011;8975;57.718;12.134;2023-02-01T08:30:34;278.13;;;0.00;;
17710;SDS011;8975;57.718;12.134;2023-02-01T08:33:02;276.27;;;0.00;;
17710;SDS011;8975;57.718;12.134;2023-02-01T08:35:27;276.33;;;0.00;;
17710;SDS011;8975;57.718;12.134;2023-02-01T08:37:53;278.87;;;0.00;;
17710;SDS011;8975;57.718;12.134;2023-02-01T08:40:18;277.13;;;0.00;;
17710;SDS011;8975;57.718;12.134;2023-02-01T08:42:44;275.83;;;0.00;;
17710;SDS011;8975;57.718;12.134;2023-02-01T08:45:16;278.90;;;0.00;;
17710;SDS011;8975;57.718;12.134;2023-02-01T08:47:43;277.70;;;0.00;;
17710;SDS011;8975;57.718;12.134;2023-02-01T08:50:09;275.33;;;0.00;;
17710;SDS011;8975;57.718;12.134;2023-02-01T08:52:35;279.38;;;0.00;;
17710;SDS011;8975;57.718;12.134;2023-02-01T08:55:01;276.98;;;0.00;;
17710;SDS011;8975;57.718;12.134;2023-02-01T08:57:26;279.05;;;0.00;;
17710;SDS011;8975;57.718;12.134;2023-02-01T08:59:52;278.58;;;0.00;;
17710;SDS011;8975;57.718;12.134;2023-02-01T09:02:17;279.02;;;0.00;;
17710;SDS011;8975;57.718;12.134;2023-02-01T09:04:43;281.05;;;0.00;;
17710;SDS011;8975;57.718;12.134;2023-02-01T09:07:09;282.92;;;0.00;;
17710;SDS011;8975;57.718;12.134;2023-02-01T09:09:35;281.45;;;0.00;;
17710;SDS011;8975;57.718;12.134;2023-02-01T09:12:02;282.65;;;0.00;;
17710;SDS011;8975;57.718;12.134;2023-02-01T09:14:28;282.50;;;0.00;;
17710;SDS011;8975;57.718;12.134;2023-02-01T09:16:54;280.40;;;0.00;;
17710;SDS011;8975;57.718;12.134;2023-02-01T09:19:19;281.57;;;0.00;;
17710;SDS011;8975;57.718;12.134;2023-02-01T09:21:45;289.50;;;0.00;;
17710;SDS011;8975;57.718;12.134;2023-02-01T09:24:11;283.10;;;0.00;;
17710;SDS011;8975;57.718;12.134;2023-02-01T09:26:37;281.90;;;0.00;;
17710;SDS011;8975;57.718;12.134;2023-02-01T09:29:03;281.88;;;0.00;;
17710;SDS011;8975;57.718;12.134;2023-02-01T09:31:31;283.83;;;0.00;;
17710;SDS011;8975;57.718;12.134;2023-02-01T09:33:57;282.50;;;0.00;;
17710;SDS011;8975;57.718;12.134;2023-02-01T09:36:22;285.67;;;0.00;;
17710;SDS011;8975;57.718;12.134;2023-02-01T09:38:48;285.25;;;0.00;;
17710;SDS011;8975;57.718;12.134;2023-02-01T09:46:40;283.90;;;0.00;;
17710;SDS011;8975;57.718;12.134;2023-02-01T09:49:08;285.73;;;0.00;;
17710;SDS011;8975;57.718;12.134;2023-02-01T09:51:43;282.90;;;0.00;;
17710;SDS011;8975;57.718;12.134;2023-02-01T09:54:28;281.50;;;0.00;;
17710;SDS011;8975;57.718;12.134;2023-02-01T10:00:33;282.63;;;0.00;;
17710;SDS011;8975;57.718;12.134;2023-02-01T10:03:01;286.27;;;0.00;;
17710;SDS011;8975;57.718;12.134;2023-02-01T10:10:52;283.73;;;0.00;;
17710;SDS011;8975;57.718;12.134;2023-02-01T10:13:38;285.15;;;0.00;;
17710;SDS011;8975;57.718;12.134;2023-02-01T10:26:57;286.70;;;0.00;;
17710;SDS011;8975;57.718;12.134;2023-02-01T10:29:30;287.10;;;0.00;;
17710;SDS011;8975;57.718;12.134;2023-02-01T10:32:02;285.92;;;0.00;;
17710;SDS011;8975;57.718;12.134;2023-02-01T10:34:34;283.30;;;0.00;;
17710;SDS011;8975;57.718;12.134;2023-02-01T10:37:47;285.40;;;0.00;;
17710;SDS011;8975;57.718;12.134;2023-02-01T10:39:55;287.13;;;0.00;;
17710;SDS011;8975;57.718;12.134;2023-02-01T10:42:26;288.90;;;0.00;;
17710;SDS011;8975;57.718;12.134;2023-02-01T10:44:54;284.98;;;0.00;;
17710;SDS011;8975;57.718;12.134;2023-02-01T10:47:24;285.25;;;0.00;;
17710;SDS011;8975;57.718;12.134;2023-02-01T10:49:52;286.40;;;0.00;;
17710;SDS011;8975;57.718;12.134;2023-02-01T10:52:29;285.40;;;0.00;;
17710;SDS011;8975;57.718;12.134;2023-02-01T10:55:25;283.77;;;0.00;;
17710;SDS011;8975;57.718;12.134;2023-02-01T10:58:03;285.17;;;0.00;;
17710;SDS011;8975;57.718;12.134;2023-02-01T11:00:39;285.67;;;0.00;;
17710;SDS011;8975;57.718;12.134;2023-02-01T11:06:00;283.65;;;0.00;;
17710;SDS011;8975;57.718;12.134;2023-02-01T11:08:30;284.80;;;0.00;;
17710;SDS011;8975;57.718;12.134;2023-02-01T11:10:59;284.30;;;0.00;;
17710;SDS011;8975;57.718;12.134;2023-02-01T11:13:31;282.77;;;0.00;;
17710;SDS011;8975;57.718;12.134;2023-02-01T11:16:02;284.35;;;0.00;;
17710;SDS011;8975;57.718;12.134;2023-02-01T11:18:30;285.42;;;0.00;;
17710;SDS011;8975;57.718;12.134;2023-02-01T11:20:59;286.10;;;0.00;;
17710;SDS011;8975;57.718;12.134;2023-02-01T11:23:26;285.90;;;0.00;;
17710;SDS011;8975;57.718;12.134;2023-02-01T11:25:54;285.58;;;0.00;;
17710;SDS011;8975;57.718;12.134;2023-02-01T11:28:32;289.88;;;0.00;;
17710;SDS011;8975;57.718;12.134;2023-02-01T11:31:02;287.55;;;0.00;;
17710;SDS011;8975;57.718;12.134;2023-02-01T11:33:30;288.60;;;0.00;;
17710;SDS011;8975;57.718;12.134;2023-02-01T11:36:00;289.02;;;0.00;;
17710;SDS011;8975;57.718;12.134;2023-02-01T11:38:32;287.95;;;0.00;;
17710;SDS011;8975;57.718;12.134;2023-02-01T11:41:11;287.67;;;0.00;;
17710;SDS011;8975;57.718;12.134;2023-02-01T11:43:49;285.65;;;0.00;;
17710;SDS011;8975;57.718;12.134;2023-02-01T11:46:22;286.15;;;0.00;;
17710;SDS011;8975;57.718;12.134;2023-02-01T11:48:52;286.60;;;0.00;;
17710;SDS011;8975;57.718;12.134;2023-02-01T11:51:24;287.52;;;0.00;;
17710;SDS011;8975;57.718;12.134;2023-02-01T12:03:34;289.70;;;0.00;;
17710;SDS011;8975;57.718;12.134;2023-02-01T12:24:55;286.70;;;0.00;;
17710;SDS011;8975;57.718;12.134;2023-02-01T12:27:35;288.65;;;0.00;;
17710;SDS011;8975;57.718;12.134;2023-02-01T12:43:49;287.52;;;0.00;;
17710;SDS011;8975;57.718;12.134;2023-02-01T12:46:21;286.87;;;0.00;;
17710;SDS011;8975;57.718;12.134;2023-02-01T12:48:58;287.23;;;0.00;;
17710;SDS011;8975;57.718;12.134;2023-02-01T12:51:39;286.60;;;0.00;;
17710;SDS011;8975;57.718;12.134;2023-02-01T12:54:21;291.65;;;0.00;;
17710;SDS011;8975;57.718;12.134;2023-02-01T12:56:56;286.17;;;0.00;;
17710;SDS011;8975;57.718;12.134;2023-02-01T12:59:39;287.90;;;0.00;;
17710;SDS011;8975;57.718;12.134;2023-02-01T13:07:25;289.33;;;0.00;;
17710;SDS011;8975;57.718;12.134;2023-02-01T13:10:01;289.83;;;0.00;;
17710;SDS011;8975;57.718;12.134;2023-02-01T13:12:35;291.52;;;0.00;;
17710;SDS011;8975;57.718;12.134;2023-02-01T13:15:14;289.43;;;0.00;;
17710;SDS011;8975;57.718;12.134;2023-02-01T13:17:45;289.73;;;0.00;;
17710;SDS011;8975;57.718;12.134;2023-02-01T13:20:30;289.02;;;0.00;;
17710;SDS011;8975;57.718;12.134;2023-02-01T13:36:54;289.50;;;0.00;;
17710;SDS011;8975;57.718;12.134;2023-02-01T13:42:19;288.25;;;0.00;;
17710;SDS011;8975;57.718;12.134;2023-02-01T13:44:54;287.58;;;0.00;;
17710;SDS011;8975;57.718;12.134;2023-02-01T13:47:39;289.15;;;0.00;;
17710;SDS011;8975;57.718;12.134;2023-02-01T13:52:45;286.60;;;0.00;;
17710;SDS011;8975;57.718;12.134;2023-02-01T13:55:36;290.48;;;0.00;;
17710;SDS011;8975;57.718;12.134;2023-02-01T14:03:46;288.08;;;0.00;;
17710;SDS011;8975;57.718;12.134;2023-02-01T14:06:17;291.42;;;0.00;;
17710;SDS011;8975;57.718;12.134;2023-02-01T14:19:36;287.50;;;0.00;;
17710;SDS011;8975;57.718;12.134;2023-02-01T14:24:39;288.27;;;0.00;;
17710;SDS011;8975;57.718;12.134;2023-02-01T14:29:38;288.98;;;0.00;;
17710;SDS011;8975;57.718;12.134;2023-02-01T14:32:13;289.37;;;0.00;;
17710;SDS011;8975;57.718;12.134;2023-02-01T14:44:52;286.85;;;0.00;;
17710;SDS011;8975;57.718;12.134;2023-02-01T14:52:19;288.40;;;0.00;;
17710;SDS011;8975;57.718;12.134;2023-02-01T14:54:55;287.50;;;0.00;;
17710;SDS011;8975;57.718;12.134;2023-02-01T14:57:24;287.13;;;0.00;;
17710;SDS011;8975;57.718;12.134;2023-02-01T14:59:54;286.77;;;0.00;;
17710;SDS011;8975;57.718;12.134;2023-02-01T15:02:30;287.92;;;0.00;;
17710;SDS011;8975;57.718;12.134;2023-02-01T15:05:00;286.77;;;0.00;;
17710;SDS011;8975;57.718;12.134;2023-02-01T15:07:25;285.73;;;0.00;;
17710;SDS011;8975;57.718;12.134;2023-02-01T15:09:53;286.48;;;0.00;;
17710;SDS011;8975;57.718;12.134;2023-02-01T15:17:48;286.42;;;0.00;;
17710;SDS011;8975;57.718;12.134;2023-02-01T15:20:19;285.50;;;0.00;;
17710;SDS011;8975;57.718;12.134;2023-02-01T15:22:57;285.30;;;0.00;;
17710;SDS011;8975;57.718;12.134;2023-02-01T15:25:27;284.33;;;0.00;;
17710;SDS011;8975;57.718;12.134;2023-02-01T15:27:56;283.50;;;0.00;;
17710;SDS011;8975;57.718;12.134;2023-02-01T15:30:23;280.98;;;0.00;;
17710;SDS011;8975;57.718;12.134;2023-02-01T15:32:49;281.58;;;0.00;;
17710;SDS011;8975;57.718;12.134;2023-02-01T15:35:35;283.15;;;0.00;;
17710;SDS011;8975;57.718;12.134;2023-02-01T15:40:59;281.50;;;0.00;;
17710;SDS011;8975;57.718;12.134;2023-02-01T15:43:25;281.65;;;0.00;;
17710;SDS011;8975;57.718;12.134;2023-02-01T15:45:55;284.17;;;0.00;;
17710;SDS011;8975;57.718;12.134;2023-02-01T15:48:23;282.40;;;0.00;;
17710;SDS011;8975;57.718;12.134;2023-02-01T15:50:51;282.75;;;0.00;;
17710;SDS011;8975;57.718;12.134;2023-02-01T15:53:20;279.60;;;0.00;;
17710;SDS011;8975;57.718;12.134;2023-02-01T15:55:51;283.42;;;0.00;;
17710;SDS011;8975;57.718;12.134;2023-02-01T15:58:20;280.55;;;0.00;;
17710;SDS011;8975;57.718;12.134;2023-02-01T16:00:48;280.88;;;0.00;;
17710;SDS011;8975;57.718;12.134;2023-02-01T16:03:28;283.85;;;0.00;;
17710;SDS011;8975;57.718;12.134;2023-02-01T16:05:58;285.40;;;0.00;;
17710;SDS011;8975;57.718;12.134;2023-02-01T16:08:29;281.73;;;0.00;;
17710;SDS011;8975;57.718;12.134;2023-02-01T16:11:21;283.88;;;0.00;;
17710;SDS011;8975;57.718;12.134;2023-02-01T16:13:45;282.90;;;0.00;;
17710;SDS011;8975;57.718;12.134;2023-02-01T16:16:10;286.87;;;0.00;;
17710;SDS011;8975;57.718;12.134;2023-02-01T16:18:39;282.58;;;0.00;;
17710;SDS011;8975;57.718;12.134;2023-02-01T16:21:07;283.40;;;0.00;;
17710;SDS011;8975;57.718;12.134;2023-02-01T16:23:35;280.65;;;0.00;;
17710;SDS011;8975;57.718;12.134;2023-02-01T16:26:02;280.70;;;0.00;;
17710;SDS011;8975;57.718;12.134;2023-02-01T16:28:28;282.70;;;0.00;;
17710;SDS011;8975;57.718;12.134;2023-02-01T16:30:53;280.73;;;0.00;;
17710;SDS011;8975;57.718;12.134;2023-02-01T16:33:19;282.43;;;0.00;;
17710;SDS011;8975;57.718;12.134;2023-02-01T16:35:47;281.13;;;0.00;;
17710;SDS011;8975;57.718;12.134;2023-02-01T16:38:14;281.08;;;0.00;;
17710;SDS011;8975;57.718;12.134;2023-02-01T16:40:43;282.95;;;0.00;;
17710;SDS011;8975;57.718;12.134;2023-02-01T16:43:19;282.98;;;0.00;;
17710;SDS011;8975;57.718;12.134;2023-02-01T16:45:47;284.52;;;0.00;;
17710;SDS011;8975;57.718;12.134;2023-02-01T16:48:24;280.83;;;0.00;;
17710;SDS011;8975;57.718;12.134;2023-02-01T16:50:55;281.60;;;0.00;;
17710;SDS011;8975;57.718;12.134;2023-02-01T16:53:23;284.55;;;0.00;;
17710;SDS011;8975;57.718;12.134;2023-02-01T16:55:50;282.40;;;0.00;;
17710;SDS011;8975;57.718;12.134;2023-02-01T16:58:17;282.33;;;0.00;;
17710;SDS011;8975;57.718;12.134;2023-02-01T17:00:44;281.23;;;0.00;;
17710;SDS011;8975;57.718;12.134;2023-02-01T17:03:12;280.25;;;0.00;;
17710;SDS011;8975;57.718;12.134;2023-02-01T17:05:42;282.92;;;0.00;;
17710;SDS011;8975;57.718;12.134;2023-02-01T17:08:12;281.90;;;0.00;;
17710;SDS011;8975;57.718;12.134;2023-02-01T17:10:41;281.65;;;0.00;;
17710;SDS011;8975;57.718;12.134;2023-02-01T17:13:10;280.60;;;0.00;;
17710;SDS011;8975;57.718;12.134;2023-02-01T17:15:37;280.75;;;0.00;;
17710;SDS011;8975;57.718;12.134;2023-02-01T17:18:03;283.90;;;0.00;;
17710;SDS011;8975;57.718;12.134;2023-02-01T17:20:30;283.45;;;0.00;;
17710;SDS011;8975;57.718;12.134;2023-02-01T17:22:57;281.05;;;0.00;;
17710;SDS011;8975;57.718;12.134;2023-02-01T17:25:23;281.17;;;0.00;;
17710;SDS011;8975;57.718;12.134;2023-02-01T17:27:50;280.08;;;0.00;;
17710;SDS011;8975;57.718;12.134;2023-02-01T17:30:15;280.63;;;0.00;;